sensor_id;sensor_type;location;lat;lon;timestamp;temperature;humidity
27870;DHT22;15225;50.730;4.244;2022-11-15T18:18:09;11.90;94.10
27870;DHT22;15225;50.730;4.244;2022-11-15T18:20:35;11.90;94.00
27870;DHT22;15225;50.730;4.244;2022-11-15T18:23:01;12.10;94.40
27870;DHT22;15225;50.730;4.244;2022-11-15T18:25:27;12.30;91.50
27870;DHT22;15225;50.730;4.244;2022-11-15T18:27:52;12.50;85.10
27870;DHT22;15225;50.730;4.244;2022-11-15T18:30:20;12.80;73.90
27870;DHT22;15225;50.730;4.244;2022-11-15T18:32:46;13.00;69.40
27870;DHT22;15225;50.730;4.244;2022-11-15T18:35:11;13.20;53.50
27870;DHT22;15225;50.730;4.244;2022-11-15T18:37:37;13.40;43.10
27870;DHT22;15225;50.730;4.244;2022-11-15T18:40:03;13.50;37.70
27870;DHT22;15225;50.730;4.244;2022-11-15T18:42:29;13.60;31.30
27870;DHT22;15225;50.730;4.244;2022-11-15T18:44:57;13.80;25.10
27870;DHT22;15225;50.730;4.244;2022-11-15T18:47:23;13.50;27.70
27870;DHT22;15225;50.730;4.244;2022-11-15T18:49:48;13.50;32.90
27870;DHT22;15225;50.730;4.244;2022-11-15T18:52:15;13.50;34.60
27870;DHT22;15225;50.730;4.244;2022-11-15T18:54:40;13.50;34.60
27870;DHT22;15225;50.730;4.244;2022-11-15T18:57:06;13.50;29.30
27870;DHT22;15225;50.730;4.244;2022-11-15T18:59:32;13.60;28.00
27870;DHT22;15225;50.730;4.244;2022-11-15T19:01:58;13.60;25.60
27870;DHT22;15225;50.730;4.244;2022-11-15T19:04:24;13.90;16.70
27870;DHT22;15225;50.730;4.244;2022-11-15T19:06:50;13.60;23.30
27870;DHT22;15225;50.730;4.244;2022-11-15T19:09:18;13.40;40.00
27870;DHT22;15225;50.730;4.244;2022-11-15T19:11:45;13.50;38.60
27870;DHT22;15225;50.730;4.244;2022-11-15T19:14:13;13.60;34.60
27870;DHT22;15225;50.730;4.244;2022-11-15T19:16:44;13.60;29.10
27870;DHT22;15225;50.730;4.244;2022-11-15T19:19:16;13.80;25.20
27870;DHT22;15225;50.730;4.244;2022-11-15T19:21:42;13.80;26.70
27870;DHT22;15225;50.730;4.244;2022-11-15T19:24:09;13.70;24.80
27870;DHT22;15225;50.730;4.244;2022-11-15T19:26:35;13.70;30.00
27870;DHT22;15225;50.730;4.244;2022-11-15T19:29:05;13.90;15.50
27870;DHT22;15225;50.730;4.244;2022-11-15T19:31:32;14.20;2.50
27870;DHT22;15225;50.730;4.244;2022-11-15T19:33:59;14.40;1.00
27870;DHT22;15225;50.730;4.244;2022-11-15T19:36:28;14.40;1.00
27870;DHT22;15225;50.730;4.244;2022-11-15T19:38:57;14.20;1.00
27870;DHT22;15225;50.730;4.244;2022-11-15T19:41:23;14.20;2.40
27870;DHT22;15225;50.730;4.244;2022-11-15T19:43:50;14.30;1.00
27870;DHT22;15225;50.730;4.244;2022-11-15T19:46:18;14.40;1.00
27870;DHT22;15225;50.730;4.244;2022-11-15T19:48:45;14.50;1.00
27870;DHT22;15225;50.730;4.244;2022-11-15T19:51:13;14.50;1.00
27870;DHT22;15225;50.730;4.244;2022-11-15T19:53:40;14.50;1.00
27870;DHT22;15225;50.730;4.244;2022-11-15T19:56:17;14.50;1.00
27870;DHT22;15225;50.730;4.244;2022-11-15T19:58:43;14.50;1.00
27870;DHT22;15225;50.730;4.244;2022-11-15T20:01:16;14.30;1.00
27870;DHT22;15225;50.730;4.244;2022-11-15T20:03:46;14.00;21.60
27870;DHT22;15225;50.730;4.244;2022-11-15T20:06:17;14.20;10.60
27870;DHT22;15225;50.730;4.244;2022-11-15T20:08:44;14.50;1.00
27870;DHT22;15225;50.730;4.244;2022-11-15T20:11:11;14.50;1.00
27870;DHT22;15225;50.730;4.244;2022-11-15T20:13:37;14.30;4.80
27870;DHT22;15225;50.730;4.244;2022-11-15T20:16:03;14.30;5.80
27870;DHT22;15225;50.730;4.244;2022-11-15T20:18:30;14.40;1.00
27870;DHT22;15225;50.730;4.244;2022-11-15T20:20:55;14.60;1.00
27870;DHT22;15225;50.730;4.244;2022-11-15T20:23:24;14.80;1.00
27870;DHT22;15225;50.730;4.244;2022-11-15T20:25:50;14.60;1.00
27870;DHT22;15225;50.730;4.244;2022-11-15T20:28:21;14.60;1.00
27870;DHT22;15225;50.730;4.244;2022-11-15T20:30:51;14.70;1.00
27870;DHT22;15225;50.730;4.244;2022-11-15T20:33:17;14.80;1.00
27870;DHT22;15225;50.730;4.244;2022-11-15T20:35:43;14.50;1.00
27870;DHT22;15225;50.730;4.244;2022-11-15T20:38:11;14.40;1.00
27870;DHT22;15225;50.730;4.244;2022-11-15T20:40:37;14.50;1.00
27870;DHT22;15225;50.730;4.244;2022-11-15T20:43:04;14.60;1.00
27870;DHT22;15225;50.730;4.244;2022-11-15T20:45:30;14.70;1.00
27870;DHT22;15225;50.730;4.244;2022-11-15T20:47:56;14.80;1.00
27870;DHT22;15225;50.730;4.244;2022-11-15T20:50:24;14.80;1.00
27870;DHT22;15225;50.730;4.244;2022-11-15T20:52:50;14.50;1.00
27870;DHT22;15225;50.730;4.244;2022-11-15T20:55:16;14.20;5.50
27870;DHT22;15225;50.730;4.244;2022-11-15T20:57:42;14.20;13.70
27870;DHT22;15225;50.730;4.244;2022-11-15T21:00:08;14.40;5.10
27870;DHT22;15225;50.730;4.244;2022-11-15T21:02:35;14.50;1.00
27870;DHT22;15225;50.730;4.244;2022-11-15T21:05:00;14.70;1.00
27870;DHT22;15225;50.730;4.244;2022-11-15T21:07:26;14.70;1.00
27870;DHT22;15225;50.730;4.244;2022-11-15T21:09:52;14.60;1.00
27870;DHT22;15225;50.730;4.244;2022-11-15T21:12:37;14.70;1.00
27870;DHT22;15225;50.730;4.244;2022-11-15T21:15:03;14.80;1.00
27870;DHT22;15225;50.730;4.244;2022-11-15T21:17:29;14.80;1.00
27870;DHT22;15225;50.730;4.244;2022-11-15T21:19:55;14.80;1.00
27870;DHT22;15225;50.730;4.244;2022-11-15T21:22:20;14.60;1.00
27870;DHT22;15225;50.730;4.244;2022-11-15T21:24:46;14.30;1.00
27870;DHT22;15225;50.730;4.244;2022-11-15T21:27:12;14.30;9.80
27870;DHT22;15225;50.730;4.244;2022-11-15T21:29:38;14.40;4.90
